FDX903 CYOW-CYFB
Flight info
| Callsign | FDX903 |
|---|---|
| Flight time | 2h 28m |
| Altitude | 33000 |
| Route | RADEN DCT HENDY DCT YFY |
| Aircraft | B77L/H-SDE1E2E3FGHIJ2J3J4J5M1RWXY/LB1D1 |
Departure
| Time | 2026-05-07 13:23 |
|---|---|
| Airport | Ottawa Macdonald-Cartier International Airport (CYOW) |
Arrival
| Time | 2026-05-07 15:51 |
|---|---|
| Airport | Iqaluit Airport (CYFB) |
| Time | Latitude | Longitude | Altitude | Speed | Heading |
|---|---|---|---|---|---|
| 2026-05-07 13:00 | 45.32571 | -75.65107 | 388 ft | 0 kts | 326° |
| 2026-05-07 13:15 | 45.32560 | -75.65096 | 387 ft | 3 kts | 318° |
| 2026-05-07 13:15 | 45.32546 | -75.65076 | 386 ft | 3 kts | 317° |
| 2026-05-07 13:16 | 45.32530 | -75.65061 | 386 ft | 3 kts | 338° |
| 2026-05-07 13:16 | 45.32511 | -75.65050 | 385 ft | 3 kts | 337° |
| 2026-05-07 13:16 | 45.32493 | -75.65039 | 386 ft | 3 kts | 340° |
| 2026-05-07 13:16 | 45.32484 | -75.65035 | 386 ft | 0 kts | 341° |
| 2026-05-07 13:19 | 45.32485 | -75.65035 | 385 ft | 1 kts | 341° |
| 2026-05-07 13:20 | 45.32522 | -75.65048 | 385 ft | 8 kts | 6° |
| 2026-05-07 13:20 | 45.32544 | -75.64979 | 384 ft | 9 kts | 83° |
| 2026-05-07 13:20 | 45.32570 | -75.64883 | 383 ft | 12 kts | 60° |
| 2026-05-07 13:20 | 45.32592 | -75.64775 | 383 ft | 12 kts | 94° |
| 2026-05-07 13:21 | 45.32578 | -75.64663 | 384 ft | 12 kts | 102° |
| 2026-05-07 13:21 | 45.32533 | -75.64574 | 383 ft | 12 kts | 159° |
| 2026-05-07 13:21 | 45.32482 | -75.64586 | 384 ft | 5 kts | 214° |
| 2026-05-07 13:21 | 45.32455 | -75.64627 | 384 ft | 9 kts | 232° |
| 2026-05-07 13:22 | 45.32362 | -75.64816 | 385 ft | 37 kts | 236° |
| 2026-05-07 13:22 | 45.32125 | -75.65360 | 388 ft | 104 kts | 237° |
| 2026-05-07 13:22 | 45.31595 | -75.66559 | 404 ft | 177 kts | 238° |
| 2026-05-07 13:22 | 45.30891 | -75.68081 | 911 ft | 196 kts | 239° |
| 2026-05-07 13:23 | 45.30135 | -75.69797 | 1481 ft | 209 kts | 243° |
| 2026-05-07 13:23 | 45.29388 | -75.71591 | 2372 ft | 212 kts | 243° |
| 2026-05-07 13:23 | 45.28613 | -75.73358 | 3182 ft | 210 kts | 238° |
| 2026-05-07 13:23 | 45.27832 | -75.75147 | 3612 ft | 223 kts | 252° |
| 2026-05-07 13:24 | 45.27730 | -75.77347 | 3808 ft | 232 kts | 292° |
| 2026-05-07 13:24 | 45.28647 | -75.79299 | 3934 ft | 242 kts | 320° |
| 2026-05-07 13:24 | 45.30144 | -75.80311 | 4230 ft | 248 kts | 346° |
| 2026-05-07 13:24 | 45.31870 | -75.80745 | 4830 ft | 255 kts | 348° |
| 2026-05-07 13:25 | 45.33648 | -75.81115 | 5543 ft | 260 kts | 347° |
| 2026-05-07 13:25 | 45.35438 | -75.81592 | 6315 ft | 262 kts | 343° |
| 2026-05-07 13:25 | 45.37215 | -75.82222 | 7065 ft | 264 kts | 341° |
| 2026-05-07 13:25 | 45.38982 | -75.82882 | 7797 ft | 267 kts | 341° |
| 2026-05-07 13:26 | 45.40791 | -75.83559 | 8525 ft | 270 kts | 341° |
| 2026-05-07 13:26 | 45.42620 | -75.84239 | 9228 ft | 273 kts | 341° |
| 2026-05-07 13:26 | 45.44472 | -75.84920 | 9928 ft | 277 kts | 341° |
| 2026-05-07 13:26 | 45.46373 | -75.85611 | 10382 ft | 290 kts | 341° |
| 2026-05-07 13:27 | 45.48413 | -75.86361 | 10555 ft | 314 kts | 341° |
| 2026-05-07 13:27 | 45.50614 | -75.87168 | 10747 ft | 338 kts | 341° |
| 2026-05-07 13:27 | 45.52970 | -75.88028 | 11020 ft | 358 kts | 342° |
| 2026-05-07 13:27 | 45.55429 | -75.88918 | 11607 ft | 369 kts | 342° |
| 2026-05-07 13:28 | 45.57943 | -75.89818 | 12337 ft | 376 kts | 341° |
| 2026-05-07 13:28 | 45.59629 | -75.90421 | 12859 ft | 379 kts | 341° |
| 2026-05-07 13:28 | 45.62197 | -75.91342 | 13658 ft | 383 kts | 341° |
| 2026-05-07 13:28 | 45.64797 | -75.92278 | 14442 ft | 387 kts | 341° |
| 2026-05-07 13:29 | 45.67424 | -75.93228 | 15184 ft | 392 kts | 341° |
| 2026-05-07 13:29 | 45.70077 | -75.94188 | 15898 ft | 396 kts | 341° |
| 2026-05-07 13:29 | 45.72770 | -75.95162 | 16605 ft | 401 kts | 341° |
| 2026-05-07 13:29 | 45.75491 | -75.96151 | 17305 ft | 406 kts | 341° |
| 2026-05-07 13:30 | 45.78251 | -75.97153 | 17999 ft | 410 kts | 341° |
| 2026-05-07 13:30 | 45.81034 | -75.98166 | 18683 ft | 414 kts | 340° |
| 2026-05-07 13:30 | 45.83845 | -75.99190 | 19324 ft | 419 kts | 340° |
| 2026-05-07 13:30 | 45.86688 | -76.00227 | 19972 ft | 424 kts | 340° |
| 2026-05-07 13:31 | 45.89564 | -76.01261 | 20605 ft | 429 kts | 342° |
| 2026-05-07 13:31 | 45.92551 | -76.01879 | 21172 ft | 441 kts | 351° |
| 2026-05-07 13:31 | 45.95615 | -76.01821 | 21730 ft | 451 kts | 359° |
| 2026-05-07 13:31 | 45.98793 | -76.01092 | 22283 ft | 461 kts | 6° |
| 2026-05-07 13:32 | 46.01909 | -76.00110 | 22801 ft | 467 kts | 7° |
| 2026-05-07 13:32 | 46.05095 | -75.99071 | 23296 ft | 472 kts | 7° |
| 2026-05-07 13:32 | 46.08319 | -75.98014 | 23782 ft | 477 kts | 7° |
| 2026-05-07 13:32 | 46.11611 | -75.96946 | 24281 ft | 481 kts | 7° |
| 2026-05-07 13:33 | 46.14898 | -75.95893 | 24762 ft | 485 kts | 6° |
| 2026-05-07 13:33 | 46.18211 | -75.94843 | 25215 ft | 489 kts | 6° |
| 2026-05-07 13:33 | 46.21553 | -75.93791 | 25658 ft | 494 kts | 7° |
| 2026-05-07 13:33 | 46.24873 | -75.92751 | 26097 ft | 497 kts | 6° |
| 2026-05-07 13:34 | 46.28268 | -75.91689 | 26515 ft | 501 kts | 6° |
| 2026-05-07 13:34 | 46.35139 | -75.89534 | 27319 ft | 509 kts | 7° |
| 2026-05-07 13:34 | 46.38611 | -75.88444 | 27695 ft | 512 kts | 7° |
| 2026-05-07 13:35 | 46.42101 | -75.87348 | 28057 ft | 516 kts | 7° |
| 2026-05-07 13:35 | 46.45623 | -75.86239 | 28398 ft | 519 kts | 7° |
| 2026-05-07 13:35 | 46.49163 | -75.85122 | 28740 ft | 522 kts | 7° |
| 2026-05-07 13:35 | 46.52728 | -75.83993 | 29069 ft | 525 kts | 7° |
| 2026-05-07 13:36 | 46.56303 | -75.82860 | 29405 ft | 527 kts | 7° |
| 2026-05-07 13:36 | 46.59887 | -75.81721 | 29814 ft | 527 kts | 7° |
| 2026-05-07 13:36 | 46.63468 | -75.80580 | 30283 ft | 526 kts | 7° |
| 2026-05-07 13:36 | 46.67032 | -75.79445 | 30748 ft | 524 kts | 7° |
| 2026-05-07 13:37 | 46.70594 | -75.78310 | 31169 ft | 524 kts | 7° |
| 2026-05-07 13:37 | 46.74144 | -75.77178 | 31567 ft | 523 kts | 7° |
| 2026-05-07 13:37 | 46.77703 | -75.76044 | 31954 ft | 522 kts | 8° |
| 2026-05-07 13:37 | 46.81208 | -75.74924 | 32325 ft | 521 kts | 8° |
| 2026-05-07 13:38 | 46.84761 | -75.73787 | 32686 ft | 521 kts | 8° |
| 2026-05-07 13:38 | 46.88316 | -75.72650 | 32844 ft | 525 kts | 8° |
| 2026-05-07 13:38 | 46.91893 | -75.71504 | 32860 ft | 526 kts | 8° |
| 2026-05-07 13:39 | 46.99012 | -75.69212 | 32853 ft | 520 kts | 8° |
| 2026-05-07 13:39 | 47.06061 | -75.66938 | 32862 ft | 518 kts | 8° |
| 2026-05-07 13:40 | 47.13097 | -75.64666 | 32855 ft | 518 kts | 8° |
| 2026-05-07 13:40 | 47.20098 | -75.62399 | 32858 ft | 518 kts | 8° |
| 2026-05-07 13:41 | 47.27147 | -75.60108 | 32854 ft | 519 kts | 9° |
| 2026-05-07 13:41 | 47.34209 | -75.57805 | 32849 ft | 519 kts | 9° |
| 2026-05-07 13:42 | 47.41252 | -75.55502 | 32850 ft | 519 kts | 9° |
| 2026-05-07 13:42 | 47.48311 | -75.53191 | 32829 ft | 519 kts | 9° |
| 2026-05-07 13:43 | 47.55361 | -75.50873 | 32843 ft | 518 kts | 9° |
| 2026-05-07 13:43 | 47.62384 | -75.48560 | 32832 ft | 517 kts | 9° |
| 2026-05-07 13:44 | 47.69365 | -75.46254 | 32824 ft | 517 kts | 9° |
| 2026-05-07 13:44 | 47.76385 | -75.43929 | 32821 ft | 515 kts | 9° |
| 2026-05-07 13:45 | 47.83380 | -75.41606 | 32823 ft | 514 kts | 9° |
| 2026-05-07 13:45 | 47.90378 | -75.39272 | 32827 ft | 514 kts | 9° |
| 2026-05-07 13:46 | 47.97362 | -75.36937 | 32825 ft | 515 kts | 9° |
| 2026-05-07 13:46 | 48.04367 | -75.34593 | 32824 ft | 516 kts | 10° |
| 2026-05-07 13:47 | 48.11325 | -75.32256 | 32824 ft | 516 kts | 10° |
| 2026-05-07 13:47 | 48.18339 | -75.29894 | 32814 ft | 516 kts | 10° |
| 2026-05-07 13:48 | 48.25357 | -75.27522 | 32816 ft | 516 kts | 10° |
| 2026-05-07 13:48 | 48.32366 | -75.25147 | 32812 ft | 516 kts | 10° |
| 2026-05-07 13:49 | 48.39365 | -75.22769 | 32815 ft | 516 kts | 10° |
| 2026-05-07 13:49 | 48.46370 | -75.20381 | 32816 ft | 516 kts | 11° |
| 2026-05-07 13:50 | 48.60673 | -75.15486 | 32805 ft | 517 kts | 11° |
| 2026-05-07 13:51 | 48.67686 | -75.13078 | 32795 ft | 517 kts | 11° |
| 2026-05-07 13:51 | 48.74702 | -75.10662 | 32796 ft | 517 kts | 11° |
| 2026-05-07 13:52 | 48.81714 | -75.08239 | 32797 ft | 517 kts | 11° |
| 2026-05-07 13:52 | 48.88730 | -75.05808 | 32794 ft | 517 kts | 11° |
| 2026-05-07 13:53 | 48.95749 | -75.03367 | 32798 ft | 517 kts | 11° |
| 2026-05-07 13:53 | 49.02771 | -75.00918 | 32796 ft | 518 kts | 11° |
| 2026-05-07 13:54 | 49.09742 | -74.98481 | 32793 ft | 517 kts | 11° |
| 2026-05-07 13:54 | 49.16763 | -74.96020 | 32801 ft | 517 kts | 11° |
| 2026-05-07 13:55 | 49.23783 | -74.93551 | 32793 ft | 517 kts | 11° |
| 2026-05-07 13:55 | 49.30796 | -74.91076 | 32781 ft | 517 kts | 11° |
| 2026-05-07 13:56 | 49.37809 | -74.88596 | 32787 ft | 517 kts | 11° |
| 2026-05-07 13:56 | 49.44817 | -74.86114 | 32786 ft | 517 kts | 11° |
| 2026-05-07 13:57 | 49.51833 | -74.83617 | 32785 ft | 518 kts | 11° |
| 2026-05-07 13:57 | 49.58849 | -74.81112 | 32787 ft | 518 kts | 11° |
| 2026-05-07 13:58 | 49.65828 | -74.78609 | 32785 ft | 518 kts | 12° |
| 2026-05-07 13:58 | 49.72851 | -74.76084 | 32788 ft | 518 kts | 11° |
| 2026-05-07 13:59 | 49.79901 | -74.73555 | 32787 ft | 519 kts | 12° |
| 2026-05-07 13:59 | 49.86938 | -74.71014 | 32788 ft | 519 kts | 12° |
| 2026-05-07 14:00 | 49.93986 | -74.68465 | 32785 ft | 520 kts | 12° |
| 2026-05-07 14:00 | 50.01038 | -74.65900 | 32786 ft | 520 kts | 12° |
| 2026-05-07 14:01 | 50.08053 | -74.63341 | 32788 ft | 520 kts | 12° |
| 2026-05-07 14:01 | 50.15112 | -74.60759 | 32785 ft | 519 kts | 12° |
| 2026-05-07 14:02 | 50.20972 | -74.58612 | 32787 ft | 519 kts | 12° |
| 2026-05-07 14:02 | 50.29144 | -74.55611 | 32784 ft | 518 kts | 12° |
| 2026-05-07 14:03 | 50.36169 | -74.53018 | 32789 ft | 518 kts | 12° |
| 2026-05-07 14:03 | 50.42048 | -74.50844 | 32792 ft | 518 kts | 12° |
| 2026-05-07 14:04 | 50.49019 | -74.48261 | 32794 ft | 518 kts | 12° |
| 2026-05-07 14:04 | 50.56048 | -74.45647 | 32787 ft | 519 kts | 12° |
| 2026-05-07 14:05 | 50.63072 | -74.43026 | 32785 ft | 519 kts | 12° |
| 2026-05-07 14:05 | 50.70096 | -74.40398 | 32789 ft | 518 kts | 12° |
| 2026-05-07 14:06 | 50.77113 | -74.37758 | 32783 ft | 518 kts | 12° |
| 2026-05-07 14:06 | 50.84127 | -74.35117 | 32775 ft | 517 kts | 12° |
| 2026-05-07 14:07 | 50.91126 | -74.32474 | 32778 ft | 516 kts | 12° |
| 2026-05-07 14:07 | 50.98107 | -74.29829 | 32777 ft | 515 kts | 12° |
| 2026-05-07 14:08 | 51.05069 | -74.27183 | 32777 ft | 514 kts | 12° |
| 2026-05-07 14:08 | 51.12028 | -74.24530 | 32778 ft | 514 kts | 12° |
| 2026-05-07 14:09 | 51.18980 | -74.22147 | 32775 ft | 513 kts | 10° |
| 2026-05-07 14:09 | 51.25991 | -74.19988 | 32780 ft | 512 kts | 9° |
| 2026-05-07 14:10 | 51.32991 | -74.17817 | 32781 ft | 512 kts | 10° |
| 2026-05-07 14:10 | 51.39992 | -74.15585 | 32775 ft | 512 kts | 10° |
| 2026-05-07 14:11 | 51.46980 | -74.13329 | 32780 ft | 512 kts | 10° |
| 2026-05-07 14:11 | 51.53931 | -74.11075 | 32776 ft | 513 kts | 10° |
| 2026-05-07 14:12 | 51.60933 | -74.08801 | 32775 ft | 513 kts | 10° |
| 2026-05-07 14:12 | 51.67922 | -74.06524 | 32779 ft | 513 kts | 10° |
| 2026-05-07 14:13 | 51.74930 | -74.04238 | 32776 ft | 513 kts | 10° |
| 2026-05-07 14:13 | 51.81930 | -74.01946 | 32779 ft | 513 kts | 10° |
| 2026-05-07 14:14 | 51.88942 | -73.99639 | 32775 ft | 513 kts | 10° |
| 2026-05-07 14:14 | 51.95945 | -73.97329 | 32781 ft | 514 kts | 10° |
| 2026-05-07 14:15 | 52.02903 | -73.95028 | 32776 ft | 514 kts | 10° |
| 2026-05-07 14:15 | 52.09914 | -73.92702 | 32775 ft | 514 kts | 10° |
| 2026-05-07 14:16 | 52.16914 | -73.90370 | 32777 ft | 513 kts | 10° |
| 2026-05-07 14:16 | 52.23900 | -73.88038 | 32774 ft | 513 kts | 10° |
| 2026-05-07 14:17 | 52.30896 | -73.85696 | 32781 ft | 513 kts | 11° |
| 2026-05-07 14:17 | 52.37883 | -73.83346 | 32777 ft | 513 kts | 11° |
| 2026-05-07 14:18 | 52.44878 | -73.80987 | 32775 ft | 513 kts | 11° |
| 2026-05-07 14:18 | 52.51826 | -73.78636 | 32778 ft | 513 kts | 11° |
| 2026-05-07 14:19 | 52.58818 | -73.76264 | 32775 ft | 513 kts | 11° |
| 2026-05-07 14:19 | 52.65814 | -73.73878 | 32779 ft | 513 kts | 11° |
| 2026-05-07 14:20 | 52.72808 | -73.71490 | 32779 ft | 513 kts | 11° |
| 2026-05-07 14:20 | 52.79799 | -73.69100 | 32777 ft | 513 kts | 11° |
| 2026-05-07 14:21 | 52.86795 | -73.66693 | 32786 ft | 513 kts | 11° |
| 2026-05-07 14:21 | 52.93787 | -73.64281 | 32779 ft | 513 kts | 11° |
| 2026-05-07 14:22 | 53.00744 | -73.61869 | 32776 ft | 513 kts | 11° |
| 2026-05-07 14:22 | 53.07727 | -73.59443 | 32787 ft | 512 kts | 11° |
| 2026-05-07 14:23 | 53.14704 | -73.57013 | 32784 ft | 512 kts | 11° |
| 2026-05-07 14:23 | 53.21675 | -73.54574 | 32787 ft | 511 kts | 11° |
| 2026-05-07 14:24 | 53.28587 | -73.52150 | 32789 ft | 510 kts | 11° |
| 2026-05-07 14:24 | 53.35542 | -73.49702 | 32785 ft | 510 kts | 11° |
| 2026-05-07 14:25 | 53.42478 | -73.47252 | 32786 ft | 509 kts | 11° |
| 2026-05-07 14:25 | 53.49401 | -73.44800 | 32785 ft | 508 kts | 11° |
| 2026-05-07 14:26 | 53.56318 | -73.42345 | 32785 ft | 508 kts | 11° |
| 2026-05-07 14:26 | 53.63228 | -73.39877 | 32787 ft | 507 kts | 11° |
| 2026-05-07 14:27 | 53.70140 | -73.37406 | 32789 ft | 508 kts | 11° |
| 2026-05-07 14:27 | 53.77054 | -73.34926 | 32787 ft | 507 kts | 11° |
| 2026-05-07 14:28 | 53.83926 | -73.32446 | 32786 ft | 507 kts | 11° |
| 2026-05-07 14:28 | 53.90836 | -73.29949 | 32784 ft | 507 kts | 11° |
| 2026-05-07 14:29 | 53.97743 | -73.27445 | 32790 ft | 508 kts | 11° |
| 2026-05-07 14:29 | 54.04665 | -73.24925 | 32791 ft | 508 kts | 12° |
| 2026-05-07 14:30 | 54.11568 | -73.22404 | 32785 ft | 507 kts | 12° |
| 2026-05-07 14:30 | 54.18457 | -73.19879 | 32785 ft | 506 kts | 12° |
| 2026-05-07 14:31 | 54.25333 | -73.17348 | 32785 ft | 505 kts | 12° |
| 2026-05-07 14:31 | 54.32213 | -73.14812 | 32787 ft | 505 kts | 12° |
| 2026-05-07 14:32 | 54.39056 | -73.12280 | 32785 ft | 506 kts | 12° |
| 2026-05-07 14:32 | 54.45959 | -73.09716 | 32777 ft | 507 kts | 12° |
| 2026-05-07 14:33 | 54.52857 | -73.07144 | 32781 ft | 507 kts | 12° |
| 2026-05-07 14:33 | 54.59766 | -73.04558 | 32776 ft | 508 kts | 12° |
| 2026-05-07 14:34 | 54.66683 | -73.01964 | 32781 ft | 508 kts | 12° |
| 2026-05-07 14:34 | 54.73539 | -72.99383 | 32775 ft | 508 kts | 12° |
| 2026-05-07 14:35 | 54.80448 | -72.96771 | 32767 ft | 508 kts | 12° |
| 2026-05-07 14:35 | 54.87358 | -72.94149 | 32769 ft | 508 kts | 12° |
| 2026-05-07 14:36 | 54.94265 | -72.91520 | 32757 ft | 508 kts | 12° |
| 2026-05-07 14:36 | 55.01177 | -72.88881 | 32747 ft | 508 kts | 12° |
| 2026-05-07 14:37 | 55.08073 | -72.86241 | 32749 ft | 507 kts | 12° |
| 2026-05-07 14:37 | 55.18415 | -72.82256 | 32751 ft | 507 kts | 12° |
| 2026-05-07 14:38 | 55.25315 | -72.79589 | 32747 ft | 506 kts | 12° |
| 2026-05-07 14:38 | 55.32153 | -72.76933 | 32745 ft | 506 kts | 12° |
| 2026-05-07 14:39 | 55.39033 | -72.74250 | 32740 ft | 506 kts | 12° |
| 2026-05-07 14:39 | 55.45914 | -72.71567 | 32739 ft | 506 kts | 12° |
| 2026-05-07 14:40 | 55.52791 | -72.68869 | 32740 ft | 506 kts | 12° |
| 2026-05-07 14:40 | 55.59665 | -72.66162 | 32740 ft | 506 kts | 12° |
| 2026-05-07 14:41 | 55.66540 | -72.63445 | 32736 ft | 506 kts | 12° |
| 2026-05-07 14:41 | 55.73419 | -72.60715 | 32729 ft | 507 kts | 12° |
| 2026-05-07 14:42 | 55.80307 | -72.57974 | 32730 ft | 506 kts | 12° |
| 2026-05-07 14:42 | 55.87186 | -72.55230 | 32731 ft | 507 kts | 12° |
| 2026-05-07 14:43 | 55.94063 | -72.52475 | 32732 ft | 506 kts | 12° |
| 2026-05-07 14:43 | 56.00893 | -72.49718 | 32733 ft | 506 kts | 12° |
| 2026-05-07 14:44 | 56.07767 | -72.46943 | 32719 ft | 506 kts | 12° |
| 2026-05-07 14:44 | 56.14643 | -72.44163 | 32719 ft | 505 kts | 12° |
| 2026-05-07 14:45 | 56.21497 | -72.41379 | 32720 ft | 505 kts | 12° |
| 2026-05-07 14:45 | 56.27197 | -72.39051 | 32719 ft | 506 kts | 12° |
| 2026-05-07 14:46 | 56.34847 | -72.35916 | 32731 ft | 505 kts | 12° |
| 2026-05-07 14:46 | 56.41707 | -72.33100 | 32717 ft | 505 kts | 12° |
| 2026-05-07 14:47 | 56.48523 | -72.30284 | 32721 ft | 505 kts | 12° |
| 2026-05-07 14:47 | 56.55380 | -72.27440 | 32720 ft | 506 kts | 12° |
| 2026-05-07 14:48 | 56.62253 | -72.24582 | 32729 ft | 506 kts | 12° |
| 2026-05-07 14:48 | 56.69128 | -72.21715 | 32689 ft | 507 kts | 12° |
| 2026-05-07 14:49 | 56.75997 | -72.18839 | 32682 ft | 507 kts | 12° |
| 2026-05-07 14:49 | 56.82866 | -72.15953 | 32684 ft | 506 kts | 12° |
| 2026-05-07 14:50 | 56.89722 | -72.13053 | 32679 ft | 505 kts | 12° |
| 2026-05-07 14:50 | 56.96568 | -72.10158 | 32676 ft | 504 kts | 12° |
| 2026-05-07 14:51 | 57.03363 | -72.07266 | 32680 ft | 505 kts | 12° |
| 2026-05-07 14:51 | 57.10207 | -72.04346 | 32676 ft | 505 kts | 12° |
| 2026-05-07 14:52 | 57.17055 | -72.01410 | 32676 ft | 505 kts | 12° |
| 2026-05-07 14:52 | 57.23908 | -71.98462 | 32671 ft | 506 kts | 12° |
| 2026-05-07 14:53 | 57.30770 | -71.95501 | 32677 ft | 506 kts | 12° |
| 2026-05-07 14:53 | 57.37632 | -71.92529 | 32675 ft | 507 kts | 12° |
| 2026-05-07 14:54 | 57.44510 | -71.89536 | 32677 ft | 507 kts | 12° |
| 2026-05-07 14:54 | 57.51377 | -71.86537 | 32686 ft | 507 kts | 12° |
| 2026-05-07 14:55 | 57.58246 | -71.83526 | 32686 ft | 507 kts | 12° |
| 2026-05-07 14:55 | 57.65109 | -71.80507 | 32683 ft | 506 kts | 12° |
| 2026-05-07 14:56 | 57.71962 | -71.77478 | 32687 ft | 505 kts | 12° |
| 2026-05-07 14:56 | 57.78803 | -71.74442 | 32686 ft | 505 kts | 13° |
| 2026-05-07 14:57 | 57.85645 | -71.71392 | 32685 ft | 505 kts | 13° |
| 2026-05-07 14:57 | 57.92437 | -71.68359 | 32681 ft | 505 kts | 13° |
| 2026-05-07 14:58 | 57.99271 | -71.65290 | 32687 ft | 505 kts | 13° |
| 2026-05-07 14:58 | 58.06107 | -71.62209 | 32677 ft | 505 kts | 13° |
| 2026-05-07 14:59 | 58.12960 | -71.59110 | 32677 ft | 506 kts | 13° |
| 2026-05-07 14:59 | 58.19800 | -71.56006 | 32678 ft | 506 kts | 13° |
| 2026-05-07 15:00 | 58.26642 | -71.52885 | 32697 ft | 506 kts | 13° |
| 2026-05-07 15:00 | 58.33483 | -71.49750 | 32705 ft | 505 kts | 13° |
| 2026-05-07 15:01 | 58.40326 | -71.46608 | 32702 ft | 506 kts | 13° |
| 2026-05-07 15:01 | 58.47179 | -71.43442 | 32705 ft | 506 kts | 13° |
| 2026-05-07 15:02 | 58.53986 | -71.40292 | 32703 ft | 507 kts | 13° |
| 2026-05-07 15:02 | 58.60893 | -71.37086 | 32700 ft | 508 kts | 13° |
| 2026-05-07 15:03 | 58.67710 | -71.33901 | 32701 ft | 508 kts | 13° |
| 2026-05-07 15:03 | 58.74573 | -71.30679 | 32692 ft | 508 kts | 13° |
| 2026-05-07 15:04 | 58.81434 | -71.27447 | 32694 ft | 507 kts | 13° |
| 2026-05-07 15:04 | 58.88295 | -71.24202 | 32693 ft | 508 kts | 13° |
| 2026-05-07 15:05 | 58.95160 | -71.20945 | 32683 ft | 508 kts | 13° |
| 2026-05-07 15:05 | 59.02018 | -71.17678 | 32678 ft | 507 kts | 13° |
| 2026-05-07 15:06 | 59.08884 | -71.14390 | 32674 ft | 508 kts | 14° |
| 2026-05-07 15:06 | 59.14589 | -71.11650 | 32673 ft | 508 kts | 14° |
| 2026-05-07 15:07 | 59.21459 | -71.08336 | 32677 ft | 509 kts | 14° |
| 2026-05-07 15:07 | 59.28342 | -71.05001 | 32670 ft | 510 kts | 14° |
| 2026-05-07 15:08 | 59.35236 | -71.01649 | 32664 ft | 510 kts | 14° |
| 2026-05-07 15:08 | 59.42124 | -70.98290 | 32666 ft | 510 kts | 14° |
| 2026-05-07 15:09 | 59.49010 | -70.94913 | 32665 ft | 510 kts | 14° |
| 2026-05-07 15:09 | 59.55893 | -70.91525 | 32664 ft | 510 kts | 14° |
| 2026-05-07 15:10 | 59.62786 | -70.88118 | 32666 ft | 510 kts | 14° |
| 2026-05-07 15:10 | 59.69627 | -70.84719 | 32664 ft | 510 kts | 14° |
| 2026-05-07 15:11 | 59.76507 | -70.81286 | 32659 ft | 510 kts | 14° |
| 2026-05-07 15:11 | 59.83375 | -70.77845 | 32654 ft | 509 kts | 14° |
| 2026-05-07 15:12 | 59.90252 | -70.74388 | 32657 ft | 509 kts | 14° |
| 2026-05-07 15:12 | 59.97120 | -70.70921 | 32656 ft | 509 kts | 14° |
| 2026-05-07 15:13 | 60.03993 | -70.67433 | 32658 ft | 509 kts | 14° |
| 2026-05-07 15:13 | 60.10858 | -70.63934 | 32653 ft | 509 kts | 14° |
| 2026-05-07 15:14 | 60.17732 | -70.60419 | 32659 ft | 508 kts | 14° |
| 2026-05-07 15:14 | 60.24590 | -70.56894 | 32653 ft | 508 kts | 14° |
| 2026-05-07 15:15 | 60.31442 | -70.53357 | 32646 ft | 508 kts | 14° |
| 2026-05-07 15:15 | 60.38249 | -70.49831 | 32646 ft | 508 kts | 14° |
| 2026-05-07 15:16 | 60.45106 | -70.46261 | 32646 ft | 508 kts | 14° |
| 2026-05-07 15:16 | 60.51951 | -70.42681 | 32649 ft | 508 kts | 14° |
| 2026-05-07 15:17 | 60.58794 | -70.39083 | 32645 ft | 508 kts | 14° |
| 2026-05-07 15:17 | 60.65629 | -70.35482 | 32649 ft | 508 kts | 14° |
| 2026-05-07 15:18 | 60.72473 | -70.31861 | 32645 ft | 508 kts | 15° |
| 2026-05-07 15:18 | 60.79308 | -70.28220 | 32647 ft | 507 kts | 15° |
| 2026-05-07 15:19 | 60.86139 | -70.24566 | 32653 ft | 507 kts | 15° |
| 2026-05-07 15:19 | 60.92968 | -70.20898 | 32658 ft | 507 kts | 15° |
| 2026-05-07 15:20 | 60.99793 | -70.17219 | 32655 ft | 507 kts | 15° |
| 2026-05-07 15:20 | 61.06616 | -70.13526 | 32657 ft | 507 kts | 15° |
| 2026-05-07 15:21 | 61.13439 | -70.09815 | 32658 ft | 506 kts | 15° |
| 2026-05-07 15:21 | 61.20246 | -70.06095 | 32657 ft | 506 kts | 15° |
| 2026-05-07 15:22 | 61.27057 | -70.02356 | 32657 ft | 506 kts | 15° |
| 2026-05-07 15:22 | 61.33847 | -69.98610 | 32655 ft | 505 kts | 15° |
| 2026-05-07 15:23 | 61.40602 | -69.94868 | 32657 ft | 505 kts | 15° |
| 2026-05-07 15:23 | 61.47390 | -69.91094 | 32650 ft | 505 kts | 15° |
| 2026-05-07 15:24 | 61.54167 | -69.87303 | 32648 ft | 505 kts | 15° |
| 2026-05-07 15:24 | 61.60954 | -69.83496 | 32652 ft | 504 kts | 15° |
| 2026-05-07 15:25 | 61.67724 | -69.79680 | 32666 ft | 504 kts | 15° |
| 2026-05-07 15:25 | 61.74492 | -69.75843 | 32666 ft | 503 kts | 15° |
| 2026-05-07 15:26 | 61.81258 | -69.71995 | 32665 ft | 503 kts | 16° |
| 2026-05-07 15:26 | 61.88026 | -69.68124 | 32666 ft | 503 kts | 16° |
| 2026-05-07 15:27 | 61.94745 | -69.64266 | 32666 ft | 504 kts | 16° |
| 2026-05-07 15:27 | 62.01514 | -69.60361 | 32666 ft | 504 kts | 16° |
| 2026-05-07 15:28 | 62.08284 | -69.56434 | 32658 ft | 504 kts | 16° |
| 2026-05-07 15:28 | 62.15055 | -69.52490 | 32659 ft | 504 kts | 16° |
| 2026-05-07 15:29 | 62.21762 | -69.48573 | 32185 ft | 494 kts | 16° |
| 2026-05-07 15:29 | 62.25020 | -69.46662 | 31759 ft | 488 kts | 16° |
| 2026-05-07 15:29 | 62.28317 | -69.44720 | 31364 ft | 481 kts | 16° |
| 2026-05-07 15:30 | 62.31486 | -69.42851 | 30934 ft | 476 kts | 16° |
| 2026-05-07 15:30 | 62.34663 | -69.40973 | 30453 ft | 472 kts | 16° |
| 2026-05-07 15:30 | 62.37815 | -69.39106 | 29975 ft | 468 kts | 16° |
| 2026-05-07 15:30 | 62.40978 | -69.37228 | 29511 ft | 463 kts | 16° |
| 2026-05-07 15:31 | 62.44071 | -69.35388 | 29039 ft | 459 kts | 16° |
| 2026-05-07 15:31 | 62.47097 | -69.33584 | 28550 ft | 456 kts | 16° |
| 2026-05-07 15:31 | 62.50145 | -69.31763 | 28038 ft | 453 kts | 16° |
| 2026-05-07 15:31 | 62.53175 | -69.29950 | 27551 ft | 450 kts | 16° |
| 2026-05-07 15:32 | 62.56183 | -69.28147 | 27084 ft | 447 kts | 16° |
| 2026-05-07 15:32 | 62.59168 | -69.26353 | 26614 ft | 444 kts | 16° |
| 2026-05-07 15:32 | 62.62132 | -69.24567 | 26135 ft | 441 kts | 16° |
| 2026-05-07 15:32 | 62.65078 | -69.22789 | 25666 ft | 438 kts | 16° |
| 2026-05-07 15:33 | 62.68004 | -69.21019 | 25228 ft | 434 kts | 16° |
| 2026-05-07 15:33 | 62.70902 | -69.19263 | 24796 ft | 431 kts | 16° |
| 2026-05-07 15:33 | 62.73781 | -69.17515 | 24355 ft | 427 kts | 16° |
| 2026-05-07 15:33 | 62.76641 | -69.15774 | 23884 ft | 425 kts | 16° |
| 2026-05-07 15:34 | 62.79481 | -69.14042 | 23427 ft | 423 kts | 16° |
| 2026-05-07 15:34 | 62.82305 | -69.12316 | 22992 ft | 420 kts | 16° |
| 2026-05-07 15:34 | 62.85107 | -69.10601 | 22552 ft | 417 kts | 16° |
| 2026-05-07 15:34 | 62.87854 | -69.08915 | 22138 ft | 414 kts | 16° |
| 2026-05-07 15:35 | 62.90616 | -69.07217 | 21728 ft | 410 kts | 16° |
| 2026-05-07 15:35 | 62.93357 | -69.05529 | 21320 ft | 407 kts | 16° |
| 2026-05-07 15:35 | 62.96073 | -69.03853 | 20896 ft | 405 kts | 17° |
| 2026-05-07 15:35 | 62.98776 | -69.02180 | 20477 ft | 402 kts | 17° |
| 2026-05-07 15:36 | 63.01460 | -69.00516 | 20056 ft | 399 kts | 17° |
| 2026-05-07 15:36 | 63.04126 | -68.98861 | 19642 ft | 397 kts | 17° |
| 2026-05-07 15:36 | 63.06773 | -68.97216 | 19235 ft | 394 kts | 17° |
| 2026-05-07 15:36 | 63.09404 | -68.95578 | 18841 ft | 391 kts | 17° |
| 2026-05-07 15:37 | 63.12020 | -68.93945 | 18421 ft | 389 kts | 17° |
| 2026-05-07 15:37 | 63.14620 | -68.92317 | 18009 ft | 387 kts | 18° |
| 2026-05-07 15:37 | 63.17172 | -68.90720 | 17468 ft | 374 kts | 18° |
| 2026-05-07 15:37 | 63.19657 | -68.89166 | 16487 ft | 369 kts | 18° |
| 2026-05-07 15:38 | 63.22124 | -68.87618 | 15436 ft | 367 kts | 18° |
| 2026-05-07 15:38 | 63.24571 | -68.86079 | 14490 ft | 363 kts | 18° |
| 2026-05-07 15:38 | 63.26929 | -68.84599 | 14150 ft | 345 kts | 18° |
| 2026-05-07 15:38 | 63.29241 | -68.83134 | 13754 ft | 347 kts | 18° |
| 2026-05-07 15:39 | 63.31577 | -68.81648 | 13346 ft | 353 kts | 18° |
| 2026-05-07 15:39 | 63.33960 | -68.80129 | 12931 ft | 359 kts | 18° |
| 2026-05-07 15:39 | 63.36373 | -68.78595 | 12503 ft | 360 kts | 18° |
| 2026-05-07 15:39 | 63.38781 | -68.77064 | 12080 ft | 360 kts | 18° |
| 2026-05-07 15:40 | 63.41188 | -68.75533 | 11651 ft | 360 kts | 18° |
| 2026-05-07 15:40 | 63.43588 | -68.73998 | 11209 ft | 359 kts | 18° |
| 2026-05-07 15:40 | 63.45987 | -68.72471 | 10779 ft | 359 kts | 18° |
| 2026-05-07 15:40 | 63.48362 | -68.70938 | 10567 ft | 350 kts | 18° |
| 2026-05-07 15:41 | 63.50675 | -68.69449 | 10413 ft | 341 kts | 18° |
| 2026-05-07 15:41 | 63.52924 | -68.68014 | 10266 ft | 331 kts | 18° |
| 2026-05-07 15:41 | 63.55090 | -68.66614 | 10093 ft | 313 kts | 18° |
| 2026-05-07 15:41 | 63.57075 | -68.65346 | 9937 ft | 289 kts | 18° |
| 2026-05-07 15:42 | 63.59003 | -68.64097 | 9662 ft | 287 kts | 18° |
| 2026-05-07 15:42 | 63.60916 | -68.62854 | 9344 ft | 286 kts | 18° |
| 2026-05-07 15:42 | 63.62826 | -68.61621 | 9016 ft | 285 kts | 18° |
| 2026-05-07 15:42 | 63.64728 | -68.60383 | 8684 ft | 284 kts | 18° |
| 2026-05-07 15:43 | 63.66627 | -68.59156 | 8358 ft | 284 kts | 18° |
| 2026-05-07 15:43 | 63.68528 | -68.57919 | 8022 ft | 284 kts | 18° |
| 2026-05-07 15:43 | 63.70434 | -68.56747 | 7670 ft | 282 kts | 11° |
| 2026-05-07 15:43 | 63.72367 | -68.56994 | 7324 ft | 280 kts | 340° |
| 2026-05-07 15:44 | 63.74004 | -68.59242 | 6970 ft | 276 kts | 313° |
| 2026-05-07 15:44 | 63.75107 | -68.62711 | 6620 ft | 271 kts | 294° |
| 2026-05-07 15:44 | 63.75936 | -68.66505 | 6310 ft | 270 kts | 292° |
| 2026-05-07 15:44 | 63.76752 | -68.70336 | 5983 ft | 271 kts | 292° |
| 2026-05-07 15:45 | 63.77577 | -68.74173 | 5657 ft | 272 kts | 293° |
| 2026-05-07 15:45 | 63.78411 | -68.78019 | 5322 ft | 272 kts | 293° |
| 2026-05-07 15:45 | 63.79243 | -68.81862 | 4994 ft | 272 kts | 293° |
| 2026-05-07 15:45 | 63.80075 | -68.85699 | 4667 ft | 272 kts | 293° |
| 2026-05-07 15:46 | 63.82724 | -68.91294 | 4007 ft | 269 kts | 348° |
| 2026-05-07 15:46 | 63.84560 | -68.91316 | 3732 ft | 263 kts | 18° |
| 2026-05-07 15:46 | 63.86183 | -68.89607 | 3453 ft | 253 kts | 43° |
| 2026-05-07 15:47 | 63.87150 | -68.86556 | 3283 ft | 231 kts | 82° |
| 2026-05-07 15:47 | 63.87092 | -68.83174 | 3103 ft | 211 kts | 112° |
| 2026-05-07 15:47 | 63.86502 | -68.80213 | 2901 ft | 204 kts | 122° |
| 2026-05-07 15:47 | 63.85661 | -68.77714 | 2656 ft | 197 kts | 135° |
| 2026-05-07 15:48 | 63.84685 | -68.75551 | 2391 ft | 195 kts | 137° |
| 2026-05-07 15:48 | 63.83717 | -68.73437 | 2118 ft | 192 kts | 136° |
| 2026-05-07 15:48 | 63.82770 | -68.71355 | 1847 ft | 185 kts | 136° |
| 2026-05-07 15:48 | 63.81894 | -68.69420 | 1635 ft | 167 kts | 136° |
| 2026-05-07 15:49 | 63.81083 | -68.67630 | 1567 ft | 164 kts | 136° |
| 2026-05-07 15:49 | 63.80266 | -68.65826 | 1521 ft | 163 kts | 136° |
| 2026-05-07 15:49 | 63.79470 | -68.64059 | 1533 ft | 159 kts | 136° |
| 2026-05-07 15:49 | 63.78672 | -68.62327 | 1580 ft | 155 kts | 137° |
| 2026-05-07 15:50 | 63.77893 | -68.60726 | 1173 ft | 148 kts | 136° |
| 2026-05-07 15:50 | 63.77197 | -68.58922 | 433 ft | 154 kts | 132° |
| 2026-05-07 15:50 | 63.76461 | -68.57381 | 127 ft | 131 kts | 133° |
| 2026-05-07 15:50 | 63.75902 | -68.56130 | 102 ft | 88 kts | 138° |
| 2026-05-07 15:51 | 63.75600 | -68.55509 | 99 ft | 31 kts | 135° |
| 2026-05-07 15:51 | 63.75481 | -68.55231 | 101 ft | 21 kts | 121° |
| 2026-05-07 15:51 | 63.75498 | -68.55034 | 106 ft | 21 kts | 57° |